Canton, NC (28716)

2:14 PM EDT on April 30, 2017 (GMT -0400)
Canton, NC | | Change Station

Elev 2657 ft 35.53 °N, 82.84 °W | Updated 5 seconds ago

Partly Cloudy
Partly Cloudy
76.8 °F
Feels Like 79 °F
N
7.0
Wind Variable Wind from SSW

Today
High -- | Low -- °F
--% Chance of Precip.
Yesterday
High -- | Low -- °F
Precip. -- in
Pressure 30.12 in
Visibility 10.0 miles
Clouds Few 3900 ft
Mostly Cloudy 6000 ft
Mostly Cloudy 7500 ft
Heat Index 79 °F
Dew Point 57 °F
Humidity 51%
Rainfall 0.00 in
Snow Depth Not available.
6:40 AM 8:17 PM
Waxing Crescent, 24% visible
METAR KAVL 301754Z 17014G21KT 10SM FEW039 BKN060 BKN075 24/13 A3019 RMK AO2 SLP198 T02440133 10244 20194 58008 $
Pressure 30.12 in
Visibility 10.0 miles
Clouds Few 3900 ft
Mostly Cloudy 6000 ft
Mostly Cloudy 7500 ft
Heat Index 79 °F
Dew Point 57 °F
Humidity 51%
Rainfall 0.00 in
Snow Depth Not available.
6:40 AM 8:17 PM
Waxing Crescent, 24% visible
METAR KAVL 301754Z 17014G21KT 10SM FEW039 BKN060 BKN075 24/13 A3019 RMK AO2 SLP198 T02440133 10244 20194 58008 $

Get Severe Weather Alerts

Thanks for signing up!

Be on the lookout for a verification email in your inbox.

You'll start receiving the daily forecast at 8 AM.

×

10-Day Weather Forecast

Almanac

Astronomy

Apr. 30, 2017 Rise Set
Actual Time
Civil Twilight
Nautical Twilight
Astronomical Twilight
Moon
Length of Visible Light
Length of Day
Tomorrow will be .
, % of the Moon is Illuminated

Today's Extremes

State Highs State Lows

Community

WunderPhotos

WunderBlog® & News

Nearby

Air Quality

  Air Quality AQ Index Pollutant
Not available.

Snow Depth

Station Depth Elevation

Earthquake Activity

City Distance Mag. Time & Date
Minimum magnitude displayed is 2.5.

Coastal Water Temperatures

Place Temperature

Stations

Nearby Weather Stations

Station Location Temp. Windchill Dew Point Humidity Wind Precip. Elev Updated Type
                   

Watches & Warnings

There are currently no watches in effect.